createdAt,value
2018-07-02T00:00:06.680Z,0.00
2018-07-02T00:01:18.045Z,0.00
2018-07-02T00:02:27.779Z,0.00
2018-07-02T00:03:38.642Z,0.00
2018-07-02T00:04:33.937Z,0.00
2018-07-02T00:05:54.092Z,0.00
2018-07-02T00:06:46.347Z,0.00
2018-07-02T00:07:51.886Z,0.00
2018-07-02T00:10:02.337Z,0.00
2018-07-02T00:11:13.305Z,0.00
2018-07-02T00:12:10.748Z,0.00
2018-07-02T00:13:21.506Z,0.00
2018-07-02T00:15:31.094Z,0.00
2018-07-02T00:16:33.303Z,0.00
2018-07-02T00:17:45.904Z,0.00
2018-07-02T00:18:52.882Z,0.00
2018-07-02T00:19:48.990Z,0.00
2018-07-02T00:23:16.249Z,0.00
2018-07-02T00:24:22.297Z,0.00
2018-07-02T00:25:21.279Z,0.00
2018-07-02T00:26:27.125Z,0.00
2018-07-02T00:27:38.190Z,0.00
2018-07-02T00:28:43.520Z,0.00
2018-07-02T00:29:41.603Z,0.00
2018-07-02T00:30:52.759Z,0.00
2018-07-02T00:31:54.448Z,0.00
2018-07-02T00:33:04.745Z,0.00
2018-07-02T00:34:09.156Z,0.00
2018-07-02T00:35:03.840Z,0.00
2018-07-02T00:37:23.002Z,0.00
2018-07-02T00:38:32.325Z,0.00
2018-07-02T00:39:26.289Z,0.00
2018-07-02T00:40:27.832Z,0.00
2018-07-02T00:42:54.369Z,0.00
2018-07-02T00:43:55.194Z,0.00
2018-07-02T00:46:11.184Z,0.00
2018-07-02T00:47:10.165Z,0.00
2018-07-02T00:48:22.255Z,0.00
2018-07-02T00:49:24.106Z,0.00
2018-07-02T00:50:31.179Z,0.00
2018-07-02T00:52:36.925Z,0.00
2018-07-02T00:53:50.249Z,0.00
2018-07-02T00:54:50.152Z,0.00
2018-07-02T00:55:52.306Z,0.00
2018-07-02T00:57:07.877Z,0.00
2018-07-02T00:58:11.472Z,0.00
2018-07-02T00:59:09.988Z,0.00
2018-07-02T01:00:18.760Z,0.00
2018-07-02T01:01:22.956Z,0.00
2018-07-02T01:02:38.221Z,0.00
2018-07-02T01:03:28.809Z,0.00
2018-07-02T01:04:32.706Z,0.00
2018-07-02T01:05:44.799Z,0.00
2018-07-02T01:06:47.771Z,0.00
2018-07-02T01:07:51.670Z,0.00
2018-07-02T01:09:06.737Z,0.00
2018-07-02T01:10:00.695Z,0.00
2018-07-02T01:11:06.846Z,0.00
2018-07-02T01:12:14.634Z,0.00
2018-07-02T01:14:23.147Z,0.00
2018-07-02T01:15:32.882Z,0.00
2018-07-02T01:16:41.900Z,0.00
2018-07-02T01:17:37.615Z,0.00
2018-07-02T01:18:54.918Z,0.00
2018-07-02T01:19:55.130Z,0.00
2018-07-02T01:21:00.666Z,0.00
2018-07-02T01:22:11.937Z,0.00
2018-07-02T01:23:15.429Z,0.00
2018-07-02T01:24:15.944Z,0.00
2018-07-02T01:25:22.682Z,0.00
2018-07-02T01:28:38.910Z,0.00
2018-07-02T01:29:47.827Z,0.00
2018-07-02T01:30:45.478Z,0.00
2018-07-02T01:31:56.235Z,0.00
2018-07-02T01:33:04.846Z,0.00
2018-07-02T01:34:08.639Z,0.00
2018-07-02T01:35:09.980Z,0.00
2018-07-02T01:36:22.579Z,0.00
2018-07-02T01:37:31.710Z,0.00
2018-07-02T01:38:27.712Z,0.00
2018-07-02T01:39:36.839Z,0.00
2018-07-02T01:40:33.667Z,0.00
2018-07-02T01:41:49.544Z,0.00
2018-07-02T01:44:02.878Z,0.00
2018-07-02T01:45:01.751Z,0.00
2018-07-02T01:46:09.437Z,0.00
2018-07-02T01:48:24.402Z,0.00
2018-07-02T01:49:26.457Z,0.00
2018-07-02T01:50:28.412Z,0.00
2018-07-02T01:51:35.385Z,0.00
2018-07-02T01:52:37.331Z,0.00
2018-07-02T01:53:46.860Z,0.00
2018-07-02T01:54:42.261Z,0.00
2018-07-02T01:57:05.419Z,0.00
2018-07-02T01:58:08.498Z,0.00
2018-07-02T01:59:15.260Z,0.00
2018-07-02T02:00:27.350Z,0.00
2018-07-02T02:01:24.796Z,0.00
2018-07-02T02:02:33.404Z,0.00
2018-07-02T02:03:42.320Z,0.00
2018-07-02T02:04:44.375Z,0.00
2018-07-02T02:05:48.376Z,0.00
2018-07-02T02:06:47.256Z,0.00
2018-07-02T02:08:02.316Z,0.00
2018-07-02T02:09:07.240Z,0.00
2018-07-02T02:10:15.334Z,0.00
2018-07-02T02:11:17.491Z,0.00
2018-07-02T02:12:19.344Z,0.00
2018-07-02T02:13:20.474Z,0.00
2018-07-02T02:14:37.992Z,0.00
2018-07-02T02:16:38.416Z,0.00
2018-07-02T02:17:58.185Z,0.00
2018-07-02T02:18:51.126Z,0.00
2018-07-02T02:19:56.048Z,0.00
2018-07-02T02:21:04.964Z,0.00
2018-07-02T02:22:13.367Z,0.00
2018-07-02T02:23:19.009Z,0.00
2018-07-02T02:24:17.376Z,0.00
2018-07-02T02:26:35.411Z,0.00
2018-07-02T02:27:35.316Z,0.00
2018-07-02T02:28:46.074Z,0.00
2018-07-02T02:30:53.870Z,0.00
2018-07-02T02:34:04.746Z,0.00
2018-07-02T02:35:17.756Z,0.00
2018-07-02T02:36:27.900Z,0.00
2018-07-02T02:38:32.318Z,0.00
2018-07-02T02:39:45.534Z,0.00
2018-07-02T02:40:53.736Z,0.00
2018-07-02T02:41:57.324Z,0.00
2018-07-02T02:42:57.435Z,0.00
2018-07-02T02:43:58.668Z,0.00
2018-07-02T02:45:07.585Z,0.00
2018-07-02T02:46:15.707Z,0.00
2018-07-02T02:48:23.374Z,0.00
2018-07-02T02:49:31.470Z,0.00
2018-07-02T02:50:27.381Z,0.00
2018-07-02T02:52:44.496Z,0.00
2018-07-02T02:53:53.309Z,0.00
2018-07-02T02:54:59.257Z,0.00
2018-07-02T02:55:58.545Z,0.00
2018-07-02T02:58:13.194Z,0.00
2018-07-02T02:59:19.558Z,0.00
2018-07-02T03:01:31.252Z,0.00
2018-07-02T03:02:34.324Z,0.00
2018-07-02T03:05:52.571Z,0.00
2018-07-02T03:06:52.171Z,0.00
2018-07-02T03:09:05.088Z,0.00
2018-07-02T03:10:14.102Z,0.00
2018-07-02T03:12:30.090Z,0.00
2018-07-02T03:13:27.947Z,0.00
2018-07-02T03:14:32.618Z,0.00
2018-07-02T03:15:32.978Z,0.00
2018-07-02T03:16:40.714Z,0.00
2018-07-02T03:18:56.960Z,0.00
2018-07-02T03:20:10.177Z,0.00
2018-07-02T03:21:13.772Z,0.00
2018-07-02T03:22:20.134Z,0.00
2018-07-02T03:23:28.732Z,0.00
2018-07-02T03:25:28.747Z,0.00
2018-07-02T03:26:40.837Z,0.00
2018-07-02T03:27:45.860Z,0.00
2018-07-02T03:28:46.174Z,0.00
2018-07-02T03:29:52.742Z,0.00
2018-07-02T03:30:50.590Z,0.00
2018-07-02T03:33:07.501Z,0.00
2018-07-02T03:34:08.635Z,0.00
2018-07-02T03:35:20.415Z,0.00
2018-07-02T03:36:30.562Z,0.00
2018-07-02T03:37:39.271Z,0.00
2018-07-02T03:38:33.956Z,0.00
2018-07-02T03:39:41.539Z,0.00
2018-07-02T03:40:51.723Z,0.00
2018-07-02T03:42:07.871Z,0.00
2018-07-02T03:43:12.381Z,0.00
2018-07-02T03:45:17.313Z,0.00
2018-07-02T03:46:12.708Z,0.00
2018-07-02T03:48:27.264Z,0.00
2018-07-02T03:49:38.227Z,0.00
2018-07-02T03:50:44.182Z,5.63
2018-07-02T03:51:52.063Z,5.63
2018-07-02T03:53:00.267Z,5.63
2018-07-02T03:53:58.732Z,5.63
2018-07-02T03:55:00.726Z,5.63
2018-07-02T03:56:08.270Z,5.63
2018-07-02T03:57:11.043Z,5.63
2018-07-02T04:03:45.900Z,5.63
2018-07-02T04:04:50.824Z,5.63
2018-07-02T04:07:06.809Z,5.63
2018-07-02T04:08:16.748Z,5.63
2018-07-02T04:09:11.738Z,5.63
2018-07-02T04:10:14.920Z,5.63
2018-07-02T04:12:26.709Z,5.63
2018-07-02T04:13:39.731Z,5.63
2018-07-02T04:14:42.902Z,11.25
2018-07-02T04:16:43.529Z,11.25
2018-07-02T04:17:58.733Z,11.25
2018-07-02T04:19:04.433Z,11.25
2018-07-02T04:20:06.487Z,11.25
2018-07-02T04:21:18.782Z,11.25
2018-07-02T04:22:21.204Z,11.25
2018-07-02T04:24:29.358Z,11.25
2018-07-02T04:25:28.739Z,11.25
2018-07-02T04:26:38.786Z,11.25
2018-07-02T04:28:52.213Z,11.25
2018-07-02T04:32:03.737Z,11.25
2018-07-02T04:33:09.350Z,11.25
2018-07-02T04:34:18.188Z,11.25
2018-07-02T04:35:20.208Z,11.25
2018-07-02T04:36:30.148Z,11.25
2018-07-02T04:37:39.882Z,11.25
2018-07-02T04:38:41.017Z,11.25
2018-07-02T04:39:54.851Z,11.25
2018-07-02T04:40:52.405Z,11.25
2018-07-02T04:43:03.700Z,11.25
2018-07-02T04:44:03.168Z,11.25
2018-07-02T04:45:11.376Z,11.25
2018-07-02T04:46:22.948Z,11.25
2018-07-02T04:48:32.892Z,11.25
2018-07-02T04:49:29.929Z,11.25
2018-07-02T04:51:49.297Z,16.88
2018-07-02T04:53:49.823Z,16.88
2018-07-02T04:56:06.015Z,16.88
2018-07-02T04:57:07.763Z,16.88
2018-07-02T04:58:10.636Z,16.88
2018-07-02T05:00:22.631Z,16.88
2018-07-02T05:01:28.781Z,16.88
2018-07-02T05:02:35.146Z,11.25
2018-07-02T05:03:44.566Z,11.25
2018-07-02T05:04:48.876Z,11.25
2018-07-02T05:06:07.213Z,11.25
2018-07-02T05:07:03.018Z,11.25
2018-07-02T05:08:08.349Z,16.88
2018-07-02T05:09:11.751Z,16.88
2018-07-02T05:10:20.651Z,16.88
2018-07-02T05:11:21.589Z,16.88
2018-07-02T05:12:31.625Z,16.88
2018-07-02T05:13:31.218Z,16.88
2018-07-02T05:14:43.719Z,16.88
2018-07-02T05:15:46.695Z,16.88
2018-07-02T05:16:48.443Z,16.88
2018-07-02T05:17:59.917Z,16.88
2018-07-02T05:19:04.431Z,16.88
2018-07-02T05:21:15.605Z,16.88
2018-07-02T05:22:21.346Z,16.88
2018-07-02T05:23:23.405Z,16.88
2018-07-02T05:24:32.112Z,16.88
2018-07-02T05:25:39.734Z,16.88
2018-07-02T05:26:47.383Z,16.88
2018-07-02T05:27:47.390Z,16.88
2018-07-02T05:28:46.478Z,22.50
2018-07-02T05:30:00.308Z,22.50
2018-07-02T05:31:04.007Z,22.50
2018-07-02T05:32:11.276Z,22.50
2018-07-02T05:33:07.290Z,16.88
2018-07-02T05:34:31.463Z,16.88
2018-07-02T05:35:26.756Z,16.88
2018-07-02T05:36:34.548Z,16.88
2018-07-02T05:37:33.429Z,16.88
2018-07-02T05:38:46.795Z,16.88
2018-07-02T05:39:49.011Z,16.88
2018-07-02T05:40:49.628Z,16.88
2018-07-02T05:41:58.238Z,16.88
2018-07-02T05:43:18.338Z,16.88
2018-07-02T05:44:16.477Z,16.88
2018-07-02T05:45:15.668Z,16.88
2018-07-02T05:47:22.237Z,16.88
2018-07-02T05:48:35.486Z,16.88
2018-07-02T05:49:47.642Z,16.88
2018-07-02T05:51:47.349Z,16.88
2018-07-02T05:54:03.745Z,11.25
2018-07-02T05:55:16.246Z,16.88
2018-07-02T05:56:18.914Z,16.88
2018-07-02T05:57:23.250Z,16.88
2018-07-02T05:58:33.579Z,11.25
2018-07-02T05:59:32.451Z,11.25
2018-07-02T06:02:51.726Z,11.25
2018-07-02T06:04:01.254Z,11.25
2018-07-02T06:07:06.702Z,11.25
2018-07-02T06:08:18.586Z,11.25
2018-07-02T06:09:27.613Z,11.25
2018-07-02T06:10:34.984Z,11.25
2018-07-02T06:12:54.759Z,11.25
2018-07-02T06:13:55.767Z,11.25
2018-07-02T06:14:51.906Z,11.25
2018-07-02T06:15:56.828Z,11.25
2018-07-02T06:17:04.414Z,11.25
2018-07-02T06:18:19.781Z,11.25
2018-07-02T06:19:11.699Z,11.25
2018-07-02T06:20:47.340Z,11.25
2018-07-02T06:21:20.414Z,11.25
2018-07-02T06:22:43.464Z,11.25
2018-07-02T06:23:51.169Z,11.25
2018-07-02T06:24:31.494Z,11.25
2018-07-02T06:26:02.017Z,11.25
2018-07-02T06:27:53.335Z,11.25
2018-07-02T06:29:22.261Z,11.25
2018-07-02T06:31:09.424Z,11.25
2018-07-02T06:32:32.880Z,11.25
2018-07-02T06:34:22.655Z,11.25
2018-07-02T06:35:35.762Z,11.25
2018-07-02T06:36:33.114Z,11.25
2018-07-02T06:37:45.100Z,11.25
2018-07-02T06:39:00.262Z,11.25
2018-07-02T06:40:00.066Z,11.25
2018-07-02T06:40:53.778Z,11.25
2018-07-02T06:43:35.822Z,11.25
2018-07-02T06:44:16.269Z,11.25
2018-07-02T06:46:50.770Z,11.25
2018-07-02T06:47:39.772Z,11.25
2018-07-02T06:49:55.625Z,11.25
2018-07-02T06:50:56.148Z,11.25
2018-07-02T06:51:59.537Z,11.25
2018-07-02T06:53:20.120Z,11.25
2018-07-02T06:55:17.164Z,11.25
2018-07-02T06:57:17.381Z,16.88
2018-07-02T06:58:26.194Z,16.88
2018-07-02T06:59:34.632Z,16.88
2018-07-02T07:00:42.397Z,16.88
2018-07-02T07:02:53.155Z,16.88
2018-07-02T07:03:56.345Z,16.88
2018-07-02T07:04:57.783Z,16.88
2018-07-02T07:06:06.783Z,16.88
2018-07-02T07:07:12.239Z,16.88
2018-07-02T07:08:09.059Z,16.88
2018-07-02T07:11:31.506Z,16.88
2018-07-02T07:12:40.934Z,16.88
2018-07-02T07:13:51.897Z,16.88
2018-07-02T07:14:52.793Z,16.88
2018-07-02T07:15:56.110Z,16.88
2018-07-02T07:17:07.586Z,16.88
2018-07-02T07:18:12.304Z,16.88
2018-07-02T07:19:10.057Z,16.88
2018-07-02T07:20:19.894Z,22.50
2018-07-02T07:21:26.250Z,22.50
2018-07-02T07:22:31.785Z,22.50
2018-07-02T07:23:28.620Z,22.50
2018-07-02T07:24:48.183Z,22.50
2018-07-02T07:25:50.918Z,22.50
2018-07-02T07:26:41.132Z,22.50
2018-07-02T07:27:56.498Z,22.50
2018-07-02T07:28:57.938Z,22.50
2018-07-02T07:30:05.220Z,22.50
2018-07-02T07:32:16.701Z,22.50
2018-07-02T07:33:25.207Z,22.50
2018-07-02T07:34:17.736Z,22.50
2018-07-02T07:35:31.774Z,22.50
2018-07-02T07:36:33.928Z,22.50
2018-07-02T07:37:55.645Z,22.50
2018-07-02T07:39:58.794Z,22.50
2018-07-02T07:41:02.013Z,22.50
2018-07-02T07:42:11.850Z,22.50
2018-07-02T07:43:23.735Z,22.50
2018-07-02T07:44:19.212Z,22.50
2018-07-02T07:45:26.412Z,22.50
2018-07-02T07:46:35.941Z,22.50
2018-07-02T07:48:40.874Z,22.50
2018-07-02T07:49:48.974Z,22.50
2018-07-02T07:51:01.057Z,22.50
2018-07-02T07:53:01.993Z,28.13
2018-07-02T07:54:09.679Z,28.13
2018-07-02T07:55:19.004Z,28.13
2018-07-02T07:57:31.799Z,28.13
2018-07-02T07:58:33.569Z,28.13
2018-07-02T07:59:37.055Z,28.13
2018-07-02T08:01:58.785Z,28.13
2018-07-02T08:02:47.212Z,28.13
2018-07-02T08:03:51.928Z,28.13
2018-07-02T08:05:16.954Z,28.13
2018-07-02T08:07:09.221Z,28.13
2018-07-02T08:08:20.525Z,28.13
2018-07-02T08:10:38.665Z,28.13
2018-07-02T08:11:39.796Z,28.13
2018-07-02T08:12:48.411Z,28.13
2018-07-02T08:13:52.713Z,28.13
2018-07-02T08:14:51.286Z,22.50
2018-07-02T08:16:05.834Z,28.13
2018-07-02T08:17:11.473Z,28.13
2018-07-02T08:18:12.810Z,33.75
2018-07-02T08:19:19.225Z,33.75
2018-07-02T08:20:24.233Z,33.75
2018-07-02T08:21:23.582Z,33.75
2018-07-02T08:22:35.476Z,33.75
2018-07-02T08:24:57.913Z,39.38
2018-07-02T08:25:53.924Z,39.38
2018-07-02T08:27:00.807Z,39.38
2018-07-02T08:27:58.134Z,39.38
2018-07-02T08:29:14.216Z,39.38
2018-07-02T08:30:28.657Z,39.38
2018-07-02T08:31:33.277Z,45.00
2018-07-02T08:34:35.810Z,45.00
2018-07-02T08:35:43.543Z,45.00
2018-07-02T08:36:54.507Z,45.00
2018-07-02T08:37:47.656Z,45.00
2018-07-02T08:38:53.702Z,45.00
2018-07-02T08:40:08.560Z,45.00
2018-07-02T08:41:18.906Z,45.00
2018-07-02T08:42:20.150Z,45.00
2018-07-02T08:43:28.351Z,45.00
2018-07-02T08:44:20.666Z,45.00
2018-07-02T08:45:40.847Z,45.00
2018-07-02T08:46:55.909Z,45.00
2018-07-02T08:47:52.534Z,45.00
2018-07-02T08:48:51.925Z,45.00
2018-07-02T08:52:12.324Z,45.00
2018-07-02T08:53:18.271Z,45.00
2018-07-02T08:54:10.494Z,45.00
2018-07-02T08:55:31.504Z,45.00
2018-07-02T08:57:27.336Z,45.00
2018-07-02T08:58:51.072Z,45.00
2018-07-02T09:00:49.662Z,45.00
2018-07-02T09:02:16.489Z,45.00
2018-07-02T09:04:14.833Z,45.00
2018-07-02T09:05:12.819Z,45.00
2018-07-02T09:06:18.468Z,45.00
2018-07-02T09:07:32.702Z,45.00
2018-07-02T09:08:27.484Z,45.00
2018-07-02T09:10:47.880Z,45.00
2018-07-02T09:12:09.184Z,45.00
2018-07-02T09:13:59.879Z,45.00
2018-07-02T09:16:09.622Z,45.00
2018-07-02T09:17:10.822Z,45.00
2018-07-02T09:18:58.172Z,45.00
2018-07-02T09:19:30.824Z,45.00
2018-07-02T09:20:54.192Z,45.00
2018-07-02T09:22:14.269Z,45.00
2018-07-02T09:23:01.269Z,45.00
2018-07-02T09:25:52.586Z,45.00
2018-07-02T09:27:01.224Z,45.00
2018-07-02T09:28:39.505Z,45.00
2018-07-02T09:29:18.821Z,45.00
2018-07-02T09:31:25.901Z,45.00
2018-07-02T09:32:50.998Z,45.00
2018-07-02T09:33:33.490Z,45.00
2018-07-02T09:34:49.584Z,45.00
2018-07-02T09:36:05.860Z,45.00
2018-07-02T09:36:55.017Z,45.00
2018-07-02T09:37:59.118Z,45.00
2018-07-02T09:40:17.831Z,45.00
2018-07-02T09:41:21.770Z,45.00
2018-07-02T09:43:21.478Z,45.00
2018-07-02T09:44:20.460Z,45.00
2018-07-02T09:45:42.586Z,45.00
2018-07-02T09:46:37.831Z,50.63
2018-07-02T09:47:51.719Z,50.63
2018-07-02T09:48:54.791Z,50.63
2018-07-02T09:49:54.798Z,50.63
2018-07-02T09:51:05.356Z,50.63
2018-07-02T09:52:07.918Z,50.63
2018-07-02T09:54:13.153Z,50.63
2018-07-02T09:57:36.866Z,50.63
2018-07-02T09:58:34.481Z,50.63
2018-07-02T09:59:47.493Z,50.63
2018-07-02T10:00:46.579Z,50.63
2018-07-02T10:01:54.573Z,50.63
2018-07-02T10:02:59.492Z,50.63
2018-07-02T10:04:13.838Z,50.63
2018-07-02T10:06:18.270Z,50.63
2018-07-02T10:07:29.016Z,50.63
2018-07-02T10:08:25.843Z,50.63
2018-07-02T10:09:37.319Z,50.63
2018-07-02T10:10:44.188Z,50.63
2018-07-02T10:11:45.319Z,50.63
2018-07-02T10:12:44.816Z,50.63
2018-07-02T10:14:57.424Z,50.63
2018-07-02T10:16:17.809Z,50.63
2018-07-02T10:17:22.424Z,50.63
2018-07-02T10:18:21.922Z,50.63
2018-07-02T10:19:31.038Z,50.63
2018-07-02T10:20:31.966Z,56.25
2018-07-02T10:21:34.235Z,56.25
2018-07-02T10:22:49.899Z,56.25
2018-07-02T10:23:50.398Z,56.25
2018-07-02T10:24:51.040Z,56.25
2018-07-02T10:25:54.818Z,56.25
2018-07-02T10:27:01.703Z,56.25
2018-07-02T10:29:10.294Z,56.25
2018-07-02T10:32:36.452Z,56.25
2018-07-02T10:33:25.092Z,61.88
2018-07-02T10:35:44.256Z,61.88
2018-07-02T10:37:56.353Z,61.88
2018-07-02T10:39:04.448Z,61.88
2018-07-02T10:40:11.835Z,61.88
2018-07-02T10:41:10.196Z,61.88
2018-07-02T10:43:25.981Z,61.88
2018-07-02T10:44:33.973Z,61.88
2018-07-02T10:45:33.674Z,61.88
2018-07-02T10:46:37.160Z,61.88
2018-07-02T10:47:52.117Z,61.88
2018-07-02T10:48:51.100Z,61.88
2018-07-02T10:50:00.220Z,61.88
2018-07-02T10:50:56.132Z,61.88
2018-07-02T10:52:07.514Z,61.88
2018-07-02T10:54:25.030Z,61.88
2018-07-02T10:55:32.000Z,61.88
2018-07-02T10:56:40.914Z,61.88
2018-07-02T10:57:45.120Z,61.88
2018-07-02T10:58:36.628Z,61.88
2018-07-02T11:00:48.827Z,61.88
2018-07-02T11:01:57.127Z,61.88
2018-07-02T11:03:02.153Z,61.88
2018-07-02T11:04:26.432Z,61.88
2018-07-02T11:05:11.696Z,61.88
2018-07-02T11:06:23.786Z,61.88
2018-07-02T11:07:45.601Z,61.88
2018-07-02T11:08:32.600Z,61.88
2018-07-02T11:09:48.889Z,61.88
2018-07-02T11:10:56.881Z,61.88
2018-07-02T11:12:59.461Z,61.88
2018-07-02T11:14:04.800Z,61.88
2018-07-02T11:15:36.380Z,61.88
2018-07-02T11:16:24.256Z,61.88
2018-07-02T11:17:14.873Z,61.88
2018-07-02T11:19:24.994Z,61.88
2018-07-02T11:20:35.859Z,61.88
2018-07-02T11:22:36.898Z,61.88
2018-07-02T11:23:47.453Z,61.88
2018-07-02T11:25:06.504Z,61.88
2018-07-02T11:26:15.928Z,61.88
2018-07-02T11:27:08.561Z,61.88
2018-07-02T11:28:13.792Z,61.88
2018-07-02T11:29:24.656Z,61.88
2018-07-02T11:30:18.514Z,61.88
2018-07-02T11:31:29.069Z,61.88
2018-07-02T11:33:41.376Z,61.88
2018-07-02T11:34:53.050Z,61.88
2018-07-02T11:35:52.430Z,61.88
2018-07-02T11:37:00.135Z,61.88
2018-07-02T11:37:56.451Z,61.88
2018-07-02T11:39:07.824Z,61.88
2018-07-02T11:41:11.321Z,61.88
2018-07-02T11:42:27.712Z,67.50
2018-07-02T11:44:33.255Z,67.50
2018-07-02T11:45:41.555Z,67.50
2018-07-02T11:46:44.124Z,67.50
2018-07-02T11:47:47.407Z,67.50
2018-07-02T11:48:58.267Z,61.88
2018-07-02T11:50:04.623Z,61.88
2018-07-02T11:51:17.945Z,61.88
2018-07-02T11:52:14.263Z,67.50
2018-07-02T11:54:32.298Z,67.50
2018-07-02T11:55:45.011Z,61.88
2018-07-02T11:56:33.643Z,67.50
2018-07-02T11:58:50.349Z,61.88
2018-07-02T11:59:58.445Z,61.88
2018-07-02T12:01:14.119Z,61.88
2018-07-02T12:02:10.140Z,61.88
2018-07-02T12:03:13.928Z,61.88
2018-07-02T12:04:16.442Z,61.88
2018-07-02T12:05:35.455Z,61.88
2018-07-02T12:06:36.988Z,61.88
2018-07-02T12:07:36.383Z,61.88
2018-07-02T12:08:49.289Z,61.88
2018-07-02T12:09:49.447Z,61.88
2018-07-02T12:12:01.087Z,61.88
2018-07-02T12:12:56.076Z,61.88
2018-07-02T12:14:06.175Z,61.88
2018-07-02T12:15:17.642Z,61.88
2018-07-02T12:16:18.214Z,61.88
2018-07-02T12:17:18.017Z,61.88
2018-07-02T12:18:23.868Z,61.88
2018-07-02T12:19:30.522Z,61.88
2018-07-02T12:20:37.904Z,61.88
2018-07-02T12:21:51.428Z,61.88
2018-07-02T12:22:44.163Z,61.88
2018-07-02T12:23:52.274Z,61.88
2018-07-02T12:24:58.512Z,61.88
2018-07-02T12:26:07.496Z,61.88
2018-07-02T12:27:19.621Z,61.88
2018-07-02T12:28:13.881Z,61.88
2018-07-02T12:29:17.484Z,61.88
2018-07-02T12:30:26.707Z,61.88
2018-07-02T12:31:35.007Z,61.88
2018-07-02T12:33:38.504Z,61.88
2018-07-02T12:34:48.237Z,61.88
2018-07-02T12:35:49.269Z,61.88
2018-07-02T12:37:14.465Z,61.88
2018-07-02T12:38:05.871Z,56.25
2018-07-02T12:40:17.456Z,56.25
2018-07-02T12:41:27.191Z,56.25
2018-07-02T12:42:28.733Z,56.25
2018-07-02T12:43:34.066Z,56.25
2018-07-02T12:45:42.988Z,56.25
2018-07-02T12:46:54.261Z,56.25
2018-07-02T12:47:53.249Z,56.25
2018-07-02T12:49:00.621Z,56.25
2018-07-02T12:50:05.747Z,56.25
2018-07-02T12:51:14.868Z,56.25
2018-07-02T12:52:13.959Z,56.25
2018-07-02T12:53:13.038Z,56.25
2018-07-02T12:54:32.194Z,56.25
2018-07-02T12:55:28.311Z,56.25
2018-07-02T12:56:43.784Z,50.63
2018-07-02T12:57:48.291Z,50.63
2018-07-02T12:59:55.884Z,56.25
2018-07-02T13:01:00.907Z,50.63
2018-07-02T13:02:11.060Z,50.63
2018-07-02T13:03:10.041Z,50.63
2018-07-02T13:04:09.202Z,50.63
2018-07-02T13:05:31.557Z,50.63
2018-07-02T13:06:27.258Z,50.63
2018-07-02T13:07:33.621Z,45.00
2018-07-02T13:08:41.506Z,45.00
2018-07-02T13:11:01.077Z,45.00
2018-07-02T13:11:58.934Z,50.63
2018-07-02T13:13:04.164Z,45.00
2018-07-02T13:14:09.290Z,45.00
2018-07-02T13:15:22.207Z,45.00
2018-07-02T13:16:26.508Z,45.00
2018-07-02T13:17:21.294Z,45.00
2018-07-02T13:18:34.611Z,45.00
2018-07-02T13:20:47.016Z,45.00
2018-07-02T13:22:56.492Z,39.38
2018-07-02T13:23:53.998Z,39.38
2018-07-02T13:26:12.956Z,39.38
2018-07-02T13:27:20.130Z,39.38
2018-07-02T13:28:15.434Z,39.38
2018-07-02T13:29:20.965Z,39.38
2018-07-02T13:30:27.833Z,39.38
2018-07-02T13:31:35.619Z,39.38
2018-07-02T13:32:47.001Z,39.38
2018-07-02T13:35:54.488Z,39.38
2018-07-02T13:37:05.657Z,39.38
2018-07-02T13:38:14.375Z,39.38
2018-07-02T13:39:16.320Z,39.38
2018-07-02T13:41:33.067Z,28.13
2018-07-02T13:42:34.875Z,28.13
2018-07-02T13:43:34.371Z,28.13
2018-07-02T13:44:48.203Z,22.50
2018-07-02T13:45:40.529Z,22.50
2018-07-02T13:46:47.396Z,22.50
2018-07-02T13:48:00.522Z,22.50
2018-07-02T13:49:04.513Z,22.50
2018-07-02T13:50:09.129Z,33.75
2018-07-02T13:52:24.804Z,33.75
2018-07-02T13:53:29.216Z,39.38
2018-07-02T13:54:27.890Z,33.75
2018-07-02T13:55:35.387Z,33.75
2018-07-02T13:56:44.290Z,33.75
2018-07-02T13:57:50.915Z,33.75
2018-07-02T13:58:51.474Z,33.75
2018-07-02T14:00:03.560Z,28.13
2018-07-02T14:01:09.617Z,33.75
2018-07-02T14:03:05.425Z,33.75
2018-07-02T14:04:21.265Z,33.75
2018-07-02T14:05:24.588Z,33.75
2018-07-02T14:06:34.125Z,33.75
2018-07-02T14:07:32.588Z,33.75
2018-07-02T14:11:00.972Z,33.75
2018-07-02T14:12:08.562Z,33.75
2018-07-02T14:13:02.215Z,33.75
2018-07-02T14:14:16.299Z,33.75
2018-07-02T14:15:20.770Z,33.75
2018-07-02T14:16:21.794Z,33.75
2018-07-02T14:17:28.362Z,28.13
2018-07-02T14:18:26.315Z,33.75
2018-07-02T14:19:32.771Z,33.75
2018-07-02T14:20:44.555Z,33.75
2018-07-02T14:21:51.532Z,33.75
2018-07-02T14:23:01.875Z,33.75
2018-07-02T14:24:04.957Z,33.75
2018-07-02T14:25:05.983Z,33.75
2018-07-02T14:26:14.694Z,33.75
2018-07-02T14:27:26.478Z,33.75
2018-07-02T14:29:24.719Z,28.13
2018-07-02T14:30:42.481Z,28.13
2018-07-02T14:32:40.852Z,28.13
2018-07-02T14:33:43.932Z,28.13
2018-07-02T14:34:48.848Z,28.13
2018-07-02T14:37:04.735Z,28.13
2018-07-02T14:38:08.638Z,28.13
2018-07-02T14:39:19.757Z,28.13
2018-07-02T14:40:24.619Z,28.13
2018-07-02T14:41:29.849Z,28.13
2018-07-02T14:42:32.007Z,28.13
2018-07-02T14:43:38.055Z,28.13
2018-07-02T14:47:01.533Z,28.13
2018-07-02T14:48:09.113Z,28.13
2018-07-02T14:49:08.605Z,28.13
2018-07-02T14:51:24.609Z,28.13
2018-07-02T14:52:26.034Z,28.13
2018-07-02T14:53:31.978Z,28.13
2018-07-02T14:54:38.853Z,28.13
2018-07-02T14:55:35.373Z,28.13
2018-07-02T14:56:52.991Z,28.13
2018-07-02T14:57:50.745Z,28.13
2018-07-02T14:58:56.592Z,28.13
2018-07-02T15:00:11.561Z,28.13
2018-07-02T15:01:07.765Z,28.13
2018-07-02T15:04:30.518Z,28.13
2018-07-02T15:05:24.073Z,28.13
2018-07-02T15:06:41.080Z,28.13
2018-07-02T15:07:39.548Z,28.13
2018-07-02T15:08:44.266Z,28.13
2018-07-02T15:09:45.194Z,28.13
2018-07-02T15:12:06.098Z,28.13
2018-07-02T15:14:21.985Z,28.13
2018-07-02T15:15:09.804Z,28.13
2018-07-02T15:16:26.923Z,28.13
2018-07-02T15:17:30.198Z,28.13
2018-07-02T15:18:31.536Z,28.13
2018-07-02T15:20:46.395Z,22.50
2018-07-02T15:22:07.498Z,22.50
2018-07-02T15:23:09.759Z,22.50
2018-07-02T15:25:17.040Z,22.50
2018-07-02T15:27:22.686Z,22.50
2018-07-02T15:28:30.565Z,22.50
2018-07-02T15:29:37.855Z,22.50
2018-07-02T15:31:45.242Z,22.50
2018-07-02T15:32:53.646Z,22.50
2018-07-02T15:34:04.070Z,22.50
2018-07-02T15:36:15.074Z,22.50
2018-07-02T15:37:19.274Z,22.50
2018-07-02T15:38:20.572Z,28.13
2018-07-02T15:39:30.252Z,28.13
2018-07-02T15:40:34.763Z,22.50
2018-07-02T15:41:46.618Z,22.50
2018-07-02T15:43:04.579Z,56.25
2018-07-02T15:44:01.582Z,45.00
2018-07-02T15:44:59.575Z,28.13
2018-07-02T15:46:06.022Z,28.13
2018-07-02T15:47:13.578Z,33.75
2018-07-02T15:48:06.957Z,95.63
2018-07-02T15:49:30.517Z,33.75
2018-07-02T15:50:33.801Z,28.13
2018-07-02T15:51:24.580Z,28.13
2018-07-02T15:52:30.749Z,22.50
2018-07-02T15:54:45.707Z,22.50
2018-07-02T15:55:57.084Z,22.50
2018-07-02T15:57:07.530Z,22.50
2018-07-02T15:58:09.085Z,22.50
2018-07-02T16:01:11.757Z,39.38
2018-07-02T16:02:31.093Z,33.75
2018-07-02T16:03:44.539Z,22.50
2018-07-02T16:04:38.095Z,22.50
2018-07-02T16:05:45.587Z,22.50
2018-07-02T16:06:43.129Z,22.50
2018-07-02T16:07:49.994Z,22.50
2018-07-02T16:09:02.096Z,22.50
2018-07-02T16:10:02.192Z,22.50
2018-07-02T16:11:17.561Z,22.50
2018-07-02T16:14:23.627Z,22.50
2018-07-02T16:16:35.719Z,22.50
2018-07-02T16:17:45.095Z,22.50
2018-07-02T16:18:49.610Z,22.50
2018-07-02T16:20:56.098Z,16.88
2018-07-02T16:22:05.598Z,16.88
2018-07-02T16:23:13.606Z,16.88
2018-07-02T16:25:17.606Z,16.88
2018-07-02T16:27:32.110Z,16.88
2018-07-02T16:28:36.022Z,16.88
2018-07-02T16:29:41.134Z,16.88
2018-07-02T16:30:57.609Z,16.88
2018-07-02T16:33:01.531Z,16.88
2018-07-02T16:34:02.107Z,22.50
2018-07-02T16:35:07.695Z,22.50
2018-07-02T16:37:24.290Z,45.00
2018-07-02T16:38:25.322Z,22.50
2018-07-02T16:40:33.612Z,16.88
2018-07-02T16:41:35.587Z,22.50
2018-07-02T16:44:08.111Z,16.88
2018-07-02T16:45:05.299Z,16.88
2018-07-02T16:46:06.613Z,16.88
2018-07-02T16:48:13.204Z,16.88
2018-07-02T16:49:23.860Z,16.88
2018-07-02T16:50:30.937Z,16.88
2018-07-02T16:51:36.615Z,16.88
2018-07-02T16:52:47.616Z,16.88
2018-07-02T16:53:48.486Z,16.88
2018-07-02T16:54:46.026Z,16.88
2018-07-02T16:56:07.021Z,16.88
2018-07-02T16:58:14.121Z,16.88
2018-07-02T17:00:30.899Z,28.13
2018-07-02T17:01:28.123Z,22.50
2018-07-02T17:03:39.966Z,16.88
2018-07-02T17:04:31.642Z,16.88
2018-07-02T17:05:45.784Z,16.88
2018-07-02T17:06:47.624Z,33.75
2018-07-02T17:08:02.625Z,50.63
2018-07-02T17:09:09.969Z,28.13